Time;durP1;ratioP1;P1;durP2;ratioP2;P2;SDS_P1;SDS_P2;PMS_P1;PMS_P2;Temp;Humidity;BMP_temperature;BMP_pressure;BME280_temperature;BME280_humidity;BME280_pressure;Samples;Min_cycle;Max_cycle;Signal;HPM_P1;HPM_P2
2022/01/14 00:00:19;;;;;;;6.90;3.55;;;9.30;90.10;;;;;;5110076;28;20550;-61
2022/01/14 00:02:49;;;;;;;5.47;2.65;;;9.20;90.10;;;;;;5109051;28;20043;-60
2022/01/14 00:05:16;;;;;;;5.18;2.33;;;9.20;90.00;;;;;;5092992;28;20040;-61
2022/01/14 00:07:44;;;;;;;6.03;2.67;;;9.30;90.20;;;;;;5110740;28;20494;-60
2022/01/14 00:10:15;;;;;;;5.80;3.00;;;9.20;90.30;;;;;;5096832;28;20067;-62
2022/01/14 00:12:51;;;;;;;6.78;3.00;;;9.20;90.40;;;;;;5096788;28;20055;-61
2022/01/14 00:15:56;;;;;;;5.43;3.08;;;9.30;90.50;;;;;;5110363;28;20510;-61
2022/01/14 00:18:24;;;;;;;5.60;2.58;;;9.20;90.50;;;;;;5096803;28;20374;-61
2022/01/14 00:20:51;;;;;;;9.35;3.78;;;9.20;90.60;;;;;;5114451;28;20105;-60
2022/01/14 00:23:26;;;;;;;7.00;3.75;;;9.20;90.70;;;;;;5114570;28;20046;-61
2022/01/14 00:34:17;;;;;;;4.18;2.53;;;9.10;91.20;;;;;;5113488;28;20035;-60
2022/01/14 00:36:45;;;;;;;4.40;3.00;;;9.10;91.10;;;;;;5090480;28;20050;-60
2022/01/14 00:39:14;;;;;;;5.03;3.13;;;9.10;91.10;;;;;;5095471;28;20040;-60
2022/01/14 00:41:43;;;;;;;7.03;2.60;;;9.10;91.20;;;;;;5094464;28;20043;-60
2022/01/14 00:44:13;;;;;;;6.40;3.15;;;9.10;91.20;;;;;;5114113;28;20075;-60
2022/01/14 00:46:44;;;;;;;6.88;3.58;;;9.10;91.30;;;;;;5113598;28;20089;-60
2022/01/14 00:49:12;;;;;;;7.85;4.22;;;9.10;91.30;;;;;;5104847;28;20047;-60
2022/01/14 00:51:40;;;;;;;10.13;4.22;;;9.10;91.20;;;;;;5113248;27;20478;-61
2022/01/14 00:54:09;;;;;;;7.13;2.67;;;9.10;91.30;;;;;;5095799;28;20060;-61
2022/01/14 00:59:15;;;;;;;7.72;3.00;;;9.10;91.30;;;;;;5113359;28;20047;-61
2022/01/14 01:01:48;;;;;;;5.63;2.70;;;9.10;91.30;;;;;;5078188;28;20485;-60
2022/01/14 01:04:30;;;;;;;4.60;2.70;;;9.00;91.20;;;;;;5096983;27;20143;-61
2022/01/14 01:06:59;;;;;;;12.50;2.35;;;9.00;91.20;;;;;;5096416;28;20036;-61
2022/01/14 01:09:29;;;;;;;6.63;2.80;;;9.00;91.10;;;;;;5087800;28;20028;-62
2022/01/14 01:12:09;;;;;;;9.82;4.05;;;9.00;91.10;;;;;;5092989;28;20061;-60
2022/01/14 01:14:44;;;;;;;6.82;2.88;;;9.00;90.90;;;;;;5109836;28;20036;-60
2022/01/14 01:17:12;;;;;;;8.70;3.08;;;9.00;90.90;;;;;;5101994;28;20039;-60
2022/01/14 01:19:41;;;;;;;5.05;2.70;;;8.90;90.80;;;;;;5094691;28;20433;-60
2022/01/14 01:22:09;;;;;;;8.35;2.35;;;8.90;90.70;;;;;;5114271;28;20497;-60
2022/01/14 01:24:48;;;;;;;9.20;3.83;;;8.90;90.60;;;;;;5093604;27;20042;-60
2022/01/14 01:27:18;;;;;;;6.68;3.78;;;8.80;90.60;;;;;;5100361;27;20083;-60
2022/01/14 01:29:54;;;;;;;9.82;3.83;;;8.80;90.50;;;;;;5135861;27;20039;-60
2022/01/14 01:32:21;;;;;;;7.13;3.77;;;8.80;90.50;;;;;;5117875;27;20051;-60
2022/01/14 01:34:49;;;;;;;4.32;2.72;;;8.80;90.50;;;;;;5136012;27;20657;-60
2022/01/14 01:37:17;;;;;;;8.32;3.40;;;8.80;90.50;;;;;;5117654;27;20138;-61
2022/01/14 01:39:45;;;;;;;9.30;3.53;;;8.70;90.50;;;;;;5118242;27;20488;-60
2022/01/14 01:42:13;;;;;;;8.05;3.05;;;8.70;90.50;;;;;;5117648;27;20073;-60
2022/01/14 01:44:44;;;;;;;9.15;2.75;;;8.70;90.40;;;;;;5135811;27;20088;-60
2022/01/14 01:47:11;;;;;;;6.95;2.78;;;8.70;90.50;;;;;;5117511;27;20047;-60
2022/01/14 01:49:39;;;;;;;5.10;2.78;;;8.60;90.50;;;;;;5135731;27;20035;-60
2022/01/14 01:52:07;;;;;;;5.18;2.70;;;8.60;90.40;;;;;;5135559;27;20035;-60
2022/01/14 01:54:34;;;;;;;6.05;2.72;;;8.60;90.40;;;;;;5135609;27;20134;-60
2022/01/14 01:57:02;;;;;;;4.60;2.40;;;8.60;90.50;;;;;;5135600;27;20047;-60
2022/01/14 01:59:30;;;;;;;7.60;3.25;;;8.50;90.50;;;;;;5135516;27;20456;-60
2022/01/14 02:01:59;;;;;;;4.95;3.08;;;8.50;90.50;;;;;;5135400;27;20093;-60
2022/01/14 02:04:28;;;;;;;9.25;2.80;;;8.50;90.60;;;;;;5116699;27;20135;-60
2022/01/14 02:06:56;;;;;;;7.00;2.90;;;8.50;90.70;;;;;;5116803;27;20071;-60
2022/01/14 02:09:24;;;;;;;4.35;2.75;;;8.50;90.60;;;;;;5116861;27;20096;-60
2022/01/14 02:11:52;;;;;;;5.63;2.55;;;8.40;90.50;;;;;;5099411;27;20051;-60
2022/01/14 02:14:52;;;;;;;3.55;2.13;;;8.40;90.60;;;;;;5135052;27;20041;-60
2022/01/14 02:17:27;;;;;;;5.78;2.65;;;8.40;90.70;;;;;;5117080;27;20047;-61
2022/01/14 02:22:57;;;;;;;5.25;3.10;;;8.40;91.10;;;;;;5134155;27;20055;-60
2022/01/14 02:25:29;;;;;;;5.85;3.10;;;8.40;91.10;;;;;;5100062;27;20092;-60
2022/01/14 02:28:02;;;;;;;5.30;2.60;;;8.40;91.30;;;;;;5135093;27;20051;-60
2022/01/14 02:30:31;;;;;;;6.82;2.78;;;8.40;91.40;;;;;;5134182;27;20430;-60
2022/01/14 02:32:59;;;;;;;5.35;3.55;;;8.40;91.50;;;;;;5083706;28;20048;-60
2022/01/14 02:35:27;;;;;;;6.50;2.95;;;8.40;91.50;;;;;;5096077;28;20445;-60
2022/01/14 02:37:55;;;;;;;6.40;2.95;;;8.40;91.60;;;;;;5114322;28;20067;-60
2022/01/14 02:40:23;;;;;;;5.57;2.70;;;8.40;91.60;;;;;;5096246;28;20052;-61
2022/01/14 02:42:51;;;;;;;5.15;2.88;;;8.40;91.60;;;;;;5063182;28;20451;-60
2022/01/14 02:45:19;;;;;;;8.10;2.70;;;8.40;91.70;;;;;;5079028;28;20044;-60
2022/01/14 02:47:46;;;;;;;6.32;3.47;;;8.40;91.70;;;;;;5079479;28;20138;-60
2022/01/14 02:50:19;;;;;;;5.68;2.80;;;8.40;91.80;;;;;;5114166;28;20105;-60
2022/01/14 02:55:19;;;;;;;5.97;3.22;;;8.20;91.70;;;;;;5079111;28;20079;-61
2022/01/14 02:57:51;;;;;;;7.13;3.60;;;8.10;91.50;;;;;;5095868;28;20052;-60
2022/01/14 03:00:22;;;;;;;7.18;3.65;;;8.10;91.40;;;;;;5095923;28;20440;-61
2022/01/14 03:02:51;;;;;;;7.90;4.53;;;8.00;91.60;;;;;;5079271;28;20389;-60
2022/01/14 03:05:20;;;;;;;7.22;3.55;;;7.80;91.60;;;;;;5095755;28;20040;-60
2022/01/14 03:07:48;;;;;;;6.32;3.78;;;7.80;91.70;;;;;;5114026;28;20040;-60
2022/01/14 03:10:18;;;;;;;8.27;3.50;;;7.70;91.90;;;;;;5113885;28;20409;-61
2022/01/14 03:12:47;;;;;;;6.38;2.80;;;7.60;92.00;;;;;;5096110;28;20455;-60
2022/01/14 03:15:15;;;;;;;9.45;3.97;;;7.60;92.10;;;;;;5095532;28;20042;-60
2022/01/14 03:17:43;;;;;;;6.47;3.65;;;7.50;92.20;;;;;;5095962;28;20067;-60
2022/01/14 03:20:25;;;;;;;6.65;3.97;;;7.50;92.20;;;;;;5113993;28;20105;-60
2022/01/14 03:23:03;;;;;;;7.78;3.35;;;7.50;92.10;;;;;;5114040;28;20463;-60
2022/01/14 03:25:48;;;;;;;6.35;3.72;;;7.50;92.10;;;;;;5113773;28;20565;-60
2022/01/14 03:28:23;;;;;;;5.90;3.10;;;7.50;92.00;;;;;;5078962;28;20052;-61
2022/01/14 03:30:53;;;;;;;7.85;3.85;;;7.50;92.00;;;;;;5113771;28;20165;-60
2022/01/14 03:33:21;;;;;;;8.35;5.03;;;7.50;92.00;;;;;;5113669;28;20043;-60
2022/01/14 03:35:49;;;;;;;8.45;3.60;;;7.50;92.00;;;;;;5099589;28;20054;-60
2022/01/14 03:38:17;;;;;;;4.60;2.92;;;7.50;92.10;;;;;;5117632;28;20063;-60
2022/01/14 03:40:45;;;;;;;8.63;3.85;;;7.50;92.10;;;;;;5117733;28;20096;-60
2022/01/14 03:43:13;;;;;;;11.15;4.32;;;7.50;92.10;;;;;;5117716;28;20043;-60
2022/01/14 03:45:41;;;;;;;3.95;2.67;;;7.40;92.30;;;;;;5117628;28;20050;-60
2022/01/14 03:48:09;;;;;;;6.97;3.40;;;7.40;92.20;;;;;;5066059;28;20054;-61
2022/01/14 03:50:37;;;;;;;4.50;2.60;;;7.50;92.30;;;;;;5099462;28;20438;-60
2022/01/14 03:53:04;;;;;;;5.95;3.25;;;7.50;92.40;;;;;;5099287;28;20039;-60
2022/01/14 03:55:34;;;;;;;8.15;3.22;;;7.50;92.40;;;;;;5117130;28;20040;-60
2022/01/14 03:58:02;;;;;;;6.10;4.25;;;7.50;92.50;;;;;;5099570;28;20071;-60
2022/01/14 04:00:30;;;;;;;8.27;4.72;;;7.50;92.40;;;;;;5099228;28;20470;-60
2022/01/14 04:02:58;;;;;;;7.43;4.28;;;7.40;92.60;;;;;;5117321;28;20043;-60
2022/01/14 04:05:26;;;;;;;6.28;3.20;;;7.40;92.90;;;;;;5117203;28;20036;-60
2022/01/14 04:07:53;;;;;;;9.00;3.33;;;7.40;93.20;;;;;;5065505;28;20047;-60
2022/01/14 04:10:22;;;;;;;8.65;3.92;;;7.30;93.60;;;;;;5099247;28;20052;-60
2022/01/14 04:15:36;;;;;;;8.93;3.55;;;7.40;93.90;;;;;;5117055;28;20490;-60
2022/01/14 04:18:15;;;;;;;7.25;4.00;;;7.40;94.00;;;;;;5082106;28;20079;-60
2022/01/14 04:20:47;;;;;;;8.70;3.28;;;7.40;94.10;;;;;;5117221;28;20082;-60
2022/01/14 04:23:18;;;;;;;7.40;3.83;;;7.30;94.20;;;;;;5116926;28;20039;-61
2022/01/14 04:25:51;;;;;;;5.00;2.92;;;7.30;94.40;;;;;;5098662;28;20048;-60
2022/01/14 04:28:21;;;;;;;8.40;4.22;;;7.30;94.70;;;;;;5116867;28;20067;-60
2022/01/14 04:30:59;;;;;;;7.38;4.50;;;7.30;94.80;;;;;;5116713;28;20039;-60
2022/01/14 04:33:30;;;;;;;6.20;3.38;;;7.40;95.00;;;;;;5116630;28;20092;-60
2022/01/14 04:35:59;;;;;;;10.55;3.97;;;7.40;95.20;;;;;;5116695;28;20062;-60
2022/01/14 04:38:28;;;;;;;7.88;3.08;;;7.40;95.50;;;;;;5116562;28;20039;-60
2022/01/14 04:40:56;;;;;;;7.97;3.45;;;7.30;95.70;;;;;;5098288;28;20375;-59
2022/01/14 04:43:25;;;;;;;7.97;3.80;;;7.40;95.90;;;;;;5097955;28;20488;-60
2022/01/14 04:48:31;;;;;;;7.70;3.72;;;7.40;96.30;;;;;;5116586;28;20051;-60
2022/01/14 04:51:00;;;;;;;4.97;3.17;;;7.40;96.40;;;;;;5116040;28;20134;-60
2022/01/14 04:53:28;;;;;;;8.25;2.92;;;7.40;96.50;;;;;;5116202;28;20047;-60
2022/01/14 04:55:56;;;;;;;5.95;3.75;;;7.40;96.70;;;;;;5098078;28;20373;-60
2022/01/14 04:58:25;;;;;;;7.10;3.42;;;7.40;96.80;;;;;;5098549;28;20071;-60
2022/01/14 05:00:53;;;;;;;5.00;3.13;;;7.40;97.00;;;;;;5081000;28;20051;-60
2022/01/14 05:03:21;;;;;;;6.50;3.65;;;7.40;97.00;;;;;;5116089;28;20383;-60
2022/01/14 05:05:52;;;;;;;7.15;3.35;;;7.40;97.10;;;;;;5098062;28;20036;-60
2022/01/14 05:08:24;;;;;;;9.13;3.38;;;7.40;97.30;;;;;;5080949;28;20050;-60
2022/01/14 05:13:24;;;;;;;5.72;3.70;;;7.40;97.10;;;;;;5115746;28;20051;-60
2022/01/14 05:15:53;;;;;;;7.63;4.07;;;7.40;97.20;;;;;;5097870;28;20047;-60
2022/01/14 05:18:25;;;;;;;9.73;3.83;;;7.40;97.30;;;;;;5097828;28;20043;-60
2022/01/14 05:20:53;;;;;;;6.60;3.40;;;7.40;97.30;;;;;;5115893;28;20052;-60
2022/01/14 05:23:21;;;;;;;5.45;3.40;;;7.40;97.40;;;;;;5097814;28;20473;-60
2022/01/14 05:25:48;;;;;;;10.02;5.20;;;7.40;97.50;;;;;;5097894;28;20092;-60
2022/01/14 05:28:16;;;;;;;9.00;3.75;;;7.40;97.60;;;;;;5097334;28;20039;-60
2022/01/14 05:30:43;;;;;;;8.85;4.72;;;7.40;97.60;;;;;;5115519;28;20048;-60
2022/01/14 05:33:11;;;;;;;8.48;3.33;;;7.40;97.70;;;;;;5097336;28;20043;-60
2022/01/14 05:35:38;;;;;;;7.00;3.70;;;7.50;97.60;;;;;;5115316;28;20048;-60
2022/01/14 05:38:06;;;;;;;7.45;3.85;;;7.50;97.70;;;;;;5097628;28;20035;-60
2022/01/14 05:40:34;;;;;;;5.20;2.90;;;7.50;97.70;;;;;;5097719;28;20418;-60
2022/01/14 05:43:02;;;;;;;14.65;4.75;;;7.50;97.70;;;;;;5064179;28;20401;-60
2022/01/14 05:45:30;;;;;;;5.18;3.38;;;7.50;97.60;;;;;;5115259;28;20039;-60
2022/01/14 05:47:57;;;;;;;7.93;3.20;;;7.50;97.60;;;;;;5097008;28;20512;-60
2022/01/14 05:50:26;;;;;;;5.78;3.15;;;7.50;97.70;;;;;;5096857;28;20395;-60
2022/01/14 05:52:53;;;;;;;8.68;3.38;;;7.50;97.80;;;;;;5096949;28;20051;-60
2022/01/14 05:55:21;;;;;;;7.25;3.10;;;7.40;97.70;;;;;;5096673;28;20134;-60
2022/01/14 05:57:49;;;;;;;6.25;3.40;;;7.40;97.80;;;;;;5096810;28;20474;-60
2022/01/14 06:00:19;;;;;;;8.10;3.35;;;7.40;97.80;;;;;;5096747;28;20039;-60
2022/01/14 06:02:50;;;;;;;7.18;4.07;;;7.40;97.60;;;;;;5079939;28;20054;-60
2022/01/14 06:05:19;;;;;;;8.73;3.80;;;7.40;97.60;;;;;;5096872;28;20047;-61
2022/01/14 06:07:47;;;;;;;6.80;3.75;;;7.30;97.50;;;;;;5096690;28;20048;-61
2022/01/14 06:10:16;;;;;;;7.50;3.70;;;7.30;97.60;;;;;;5114583;28;20135;-61
2022/01/14 06:12:43;;;;;;;8.40;3.60;;;7.30;97.70;;;;;;5096453;28;20044;-60
2022/01/14 06:15:11;;;;;;;9.70;4.93;;;7.20;97.60;;;;;;5114765;28;20071;-60
2022/01/14 06:17:38;;;;;;;9.27;5.07;;;7.20;97.70;;;;;;5114431;28;20035;-60
2022/01/14 06:20:07;;;;;;;9.38;3.97;;;7.30;97.70;;;;;;5096367;28;20382;-60
2022/01/14 06:22:36;;;;;;;8.00;4.68;;;7.30;97.80;;;;;;5079576;28;20108;-60
2022/01/14 06:25:05;;;;;;;7.20;4.22;;;7.50;97.70;;;;;;5096794;28;20067;-60
2022/01/14 06:27:33;;;;;;;8.07;3.70;;;7.90;97.50;;;;;;5114202;28;20051;-60
2022/01/14 06:30:03;;;;;;;8.02;3.83;;;8.30;97.10;;;;;;5114372;28;20122;-60
2022/01/14 06:32:30;;;;;;;7.18;4.53;;;8.90;96.50;;;;;;5096358;28;20039;-60
2022/01/14 06:34:58;;;;;;;9.73;5.43;;;9.40;95.70;;;;;;5096300;28;20122;-60
2022/01/14 06:37:26;;;;;;;8.75;5.05;;;10.00;94.80;;;;;;5114191;28;20044;-60
2022/01/14 06:39:54;;;;;;;5.68;3.45;;;10.70;93.90;;;;;;5114304;28;20051;-60
2022/01/14 06:42:22;;;;;;;7.28;4.85;;;11.30;93.10;;;;;;5114123;28;20043;-60
2022/01/14 06:44:49;;;;;;;7.53;4.22;;;11.90;92.20;;;;;;5114212;28;20126;-60
2022/01/14 06:47:17;;;;;;;7.90;3.85;;;12.50;91.50;;;;;;5114331;28;20094;-61
2022/01/14 06:49:45;;;;;;;17.75;5.05;;;13.10;90.70;;;;;;5114135;28;20043;-60
2022/01/14 06:52:12;;;;;;;9.35;4.35;;;13.50;90.10;;;;;;5095889;28;20043;-60
2022/01/14 06:54:40;;;;;;;6.80;4.20;;;14.00;88.60;;;;;;5095700;28;20405;-60
2022/01/14 06:57:07;;;;;;;6.40;3.92;;;14.50;87.40;;;;;;5114096;28;20058;-60
2022/01/14 06:59:35;;;;;;;5.35;3.15;;;15.00;86.20;;;;;;5113701;28;20096;-60
2022/01/14 07:02:03;;;;;;;7.65;3.63;;;15.50;84.90;;;;;;5062539;28;20375;-60
2022/01/14 07:04:30;;;;;;;7.10;4.18;;;15.90;83.80;;;;;;5079539;28;20174;-60
2022/01/14 07:06:58;;;;;;;6.32;3.78;;;16.30;82.50;;;;;;5114113;28;20035;-60
2022/01/14 07:09:25;;;;;;;12.20;4.40;;;16.70;81.80;;;;;;5099533;28;20035;-60
2022/01/14 07:11:57;;;;;;;7.72;3.50;;;17.10;81.00;;;;;;5120526;28;20044;-60
2022/01/14 07:14:25;;;;;;;5.93;3.33;;;17.40;80.20;;;;;;5120649;28;20490;-60
2022/01/14 07:16:53;;;;;;;7.63;3.72;;;17.90;79.30;;;;;;5079407;28;20059;-61
2022/01/14 07:19:21;;;;;;;8.32;4.05;;;18.30;78.50;;;;;;5089177;28;20077;-61
2022/01/14 07:21:50;;;;;;;7.95;3.83;;;18.70;77.40;;;;;;5110164;28;20058;-60
2022/01/14 07:24:17;;;;;;;7.63;3.47;;;19.30;76.10;;;;;;5114410;28;20394;-61
2022/01/14 07:26:46;;;;;;;5.68;3.38;;;19.80;75.40;;;;;;5117129;28;20494;-61
2022/01/14 07:29:14;;;;;;;8.02;4.03;;;20.20;74.50;;;;;;5106029;27;20135;-61
2022/01/14 07:31:42;;;;;;;7.93;4.30;;;20.70;73.70;;;;;;5097297;28;20528;-61
2022/01/14 07:34:10;;;;;;;15.30;4.82;;;21.10;72.60;;;;;;5117904;27;20126;-61
2022/01/14 07:36:38;;;;;;;9.85;3.17;;;21.40;72.10;;;;;;5119200;28;20077;-60
2022/01/14 07:39:06;;;;;;;5.95;3.30;;;21.50;71.70;;;;;;5117536;28;20067;-60
2022/01/14 07:41:33;;;;;;;6.50;2.95;;;21.50;71.70;;;;;;5098951;28;20134;-60
2022/01/14 07:44:03;;;;;;;6.68;3.00;;;21.50;71.60;;;;;;5117429;28;20097;-61
2022/01/14 07:46:31;;;;;;;6.35;2.55;;;21.40;71.70;;;;;;5118987;28;20039;-60
2022/01/14 07:48:58;;;;;;;8.00;3.65;;;21.10;72.10;;;;;;5117390;28;20036;-61
2022/01/14 07:51:26;;;;;;;8.75;3.53;;;20.80;72.60;;;;;;5063696;28;20497;-61
2022/01/14 07:53:53;;;;;;;9.40;3.88;;;20.50;73.00;;;;;;5098534;28;20101;-61
2022/01/14 07:56:21;;;;;;;6.80;4.20;;;20.20;73.30;;;;;;5098664;28;20393;-61
2022/01/14 07:58:49;;;;;;;6.53;4.07;;;19.80;74.00;;;;;;5093180;28;20042;-62
2022/01/14 08:01:16;;;;;;;9.50;4.57;;;19.50;74.80;;;;;;5092135;28;20451;-62
2022/01/14 08:03:44;;;;;;;5.68;3.85;;;19.20;75.60;;;;;;5117036;28;20046;-63
2022/01/14 08:06:12;;;;;;;6.10;3.67;;;18.80;76.10;;;;;;5115660;28;20097;-62
2022/01/14 08:08:39;;;;;;;10.85;5.07;;;18.70;76.60;;;;;;5100706;27;20074;-61
2022/01/14 08:11:07;;;;;;;9.57;4.28;;;18.60;77.00;;;;;;5096442;28;20031;-62
2022/01/14 08:13:35;;;;;;;9.27;5.03;;;18.50;77.40;;;;;;5115775;28;20051;-62
2022/01/14 08:16:03;;;;;;;8.73;4.88;;;18.40;77.70;;;;;;5109523;27;20435;-62
2022/01/14 08:18:30;;;;;;;6.85;4.80;;;18.40;78.00;;;;;;5103531;28;20039;-61
2022/01/14 08:20:59;;;;;;;8.52;4.63;;;18.30;77.90;;;;;;5112890;28;20036;-62
2022/01/14 08:23:27;;;;;;;12.25;5.50;;;18.30;78.10;;;;;;5113628;28;20139;-62
2022/01/14 08:25:55;;;;;;;7.80;4.50;;;18.30;78.30;;;;;;5097477;27;20088;-62
2022/01/14 08:28:24;;;;;;;6.68;4.00;;;18.20;78.60;;;;;;5074585;28;20043;-61
2022/01/14 08:30:52;;;;;;;8.45;4.28;;;18.10;78.90;;;;;;5097394;28;20432;-62
2022/01/14 08:33:20;;;;;;;6.97;3.70;;;18.00;79.30;;;;;;5090344;28;20118;-63
2022/01/14 08:35:48;;;;;;;7.57;4.20;;;17.80;79.70;;;;;;5107067;28;20489;-62
2022/01/14 08:38:15;;;;;;;5.70;3.90;;;17.60;80.40;;;;;;5077773;28;20870;-62
2022/01/14 08:40:43;;;;;;;7.18;4.10;;;17.40;80.90;;;;;;5111364;28;20044;-61
2022/01/14 08:43:11;;;;;;;7.07;4.40;;;17.20;81.60;;;;;;5112531;28;20573;-62
2022/01/14 08:45:38;;;;;;;6.50;3.78;;;17.00;81.90;;;;;;5093474;28;20039;-63
2022/01/14 08:48:07;;;;;;;7.25;4.10;;;16.80;82.50;;;;;;5090366;28;20047;-61
2022/01/14 08:50:37;;;;;;;9.98;4.63;;;16.60;83.10;;;;;;5107573;28;20096;-63
2022/01/14 08:53:08;;;;;;;8.40;5.13;;;16.40;83.40;;;;;;5105549;28;20040;-62
2022/01/14 08:55:36;;;;;;;8.02;5.20;;;16.20;84.20;;;;;;5077308;28;20039;-62
2022/01/14 08:58:04;;;;;;;8.77;5.00;;;16.00;85.00;;;;;;5104999;28;20052;-61
2022/01/14 09:00:32;;;;;;;8.95;5.30;;;15.80;85.10;;;;;;5076832;28;20522;-63
2022/01/14 09:03:01;;;;;;;7.78;5.28;;;15.70;85.40;;;;;;5109469;28;20090;-61
2022/01/14 09:05:29;;;;;;;10.10;5.65;;;15.60;85.90;;;;;;5089809;27;20038;-62
2022/01/14 09:07:57;;;;;;;8.77;4.38;;;15.50;85.90;;;;;;5112272;27;20077;-61
2022/01/14 09:10:25;;;;;;;6.15;3.85;;;15.50;85.90;;;;;;5124540;27;20054;-62
2022/01/14 09:12:52;;;;;;;7.95;4.03;;;15.50;85.20;;;;;;5099295;28;20477;-60
2022/01/14 09:15:20;;;;;;;7.20;4.32;;;15.40;85.00;;;;;;5097340;28;20089;-61
2022/01/14 09:17:48;;;;;;;6.10;3.22;;;15.40;85.20;;;;;;5097480;28;20047;-61
2022/01/14 09:20:16;;;;;;;7.25;4.18;;;15.40;85.10;;;;;;5097512;28;20108;-61
2022/01/14 09:22:48;;;;;;;9.35;3.83;;;15.40;85.80;;;;;;5097805;28;20043;-61
2022/01/14 09:25:18;;;;;;;6.43;3.33;;;15.40;86.80;;;;;;5097679;28;20398;-61
2022/01/14 09:27:48;;;;;;;13.25;5.43;;;15.40;86.60;;;;;;5097488;28;20050;-61
2022/01/14 09:30:16;;;;;;;11.13;3.95;;;15.40;87.00;;;;;;5097580;28;20036;-61
2022/01/14 09:32:44;;;;;;;5.32;2.90;;;15.40;87.20;;;;;;5115034;28;20570;-61
2022/01/14 09:35:13;;;;;;;5.32;2.70;;;15.40;86.60;;;;;;5097406;28;20039;-61
2022/01/14 09:37:44;;;;;;;3.97;2.28;;;15.40;85.90;;;;;;5115704;28;20064;-61
2022/01/14 09:40:14;;;;;;;6.80;2.33;;;15.40;85.60;;;;;;5097327;28;20486;-61
2022/01/14 09:42:49;;;;;;;3.08;1.73;;;15.30;85.60;;;;;;5080393;28;20082;-61
2022/01/14 09:45:19;;;;;;;6.30;2.75;;;15.20;85.30;;;;;;5115265;28;20096;-62
2022/01/14 09:47:50;;;;;;;4.78;2.35;;;15.30;86.70;;;;;;5097307;28;20044;-61
2022/01/14 09:50:19;;;;;;;4.75;2.85;;;15.40;87.50;;;;;;5096988;28;20039;-62
2022/01/14 09:52:50;;;;;;;4.72;2.30;;;15.50;87.90;;;;;;5115072;28;20035;-61
2022/01/14 09:55:19;;;;;;;8.18;2.90;;;15.40;89.10;;;;;;5096855;28;20036;-61
2022/01/14 09:57:48;;;;;;;6.25;2.38;;;15.50;89.60;;;;;;5114815;28;20048;-61
2022/01/14 10:00:16;;;;;;;6.13;2.67;;;15.30;90.30;;;;;;5114884;28;20043;-62
2022/01/14 10:02:44;;;;;;;5.65;3.17;;;15.30;90.90;;;;;;5115095;28;20043;-61
2022/01/14 10:05:38;;;;;;;10.25;2.83;;;15.30;91.20;;;;;;5096881;28;20040;-61
2022/01/14 10:08:16;;;;;;;7.35;2.40;;;15.30;91.50;;;;;;5079626;28;20094;-61
2022/01/14 10:10:59;;;;;;;9.77;3.25;;;15.40;91.40;;;;;;5096854;28;20117;-61
2022/01/14 10:13:29;;;;;;;6.68;2.15;;;15.30;91.30;;;;;;5096633;28;20051;-61
2022/01/14 10:16:06;;;;;;;3.75;2.25;;;15.40;91.20;;;;;;5114810;28;20039;-61
2022/01/14 10:18:36;;;;;;;7.38;2.97;;;15.40;91.10;;;;;;5114642;28;20043;-61
2022/01/14 10:21:06;;;;;;;10.48;3.10;;;15.50;91.20;;;;;;5096756;28;20050;-61
2022/01/14 10:23:52;;;;;;;10.30;2.40;;;15.50;91.20;;;;;;5079742;28;20085;-61
2022/01/14 10:26:21;;;;;;;6.60;2.92;;;15.50;91.10;;;;;;5096350;28;20508;-61
2022/01/14 10:29:07;;;;;;;6.45;2.42;;;15.60;90.90;;;;;;5114248;28;20143;-61
2022/01/14 10:31:37;;;;;;;6.50;2.28;;;15.50;90.60;;;;;;5096378;28;20048;-61
2022/01/14 10:34:12;;;;;;;5.47;1.50;;;15.50;88.30;;;;;;5096332;28;20059;-61
2022/01/14 10:36:48;;;;;;;3.22;2.03;;;15.20;87.00;;;;;;5114467;28;20043;-61
2022/01/14 10:39:27;;;;;;;3.70;1.92;;;15.20;87.50;;;;;;5114133;28;20047;-62
2022/01/14 10:41:56;;;;;;;5.03;2.20;;;15.30;88.20;;;;;;5096179;28;20043;-61
2022/01/14 10:44:35;;;;;;;3.90;2.15;;;15.20;88.70;;;;;;5113540;28;20073;-61
2022/01/14 10:47:16;;;;;;;5.28;2.30;;;14.90;89.70;;;;;;5096464;28;20409;-61
2022/01/14 10:49:46;;;;;;;5.25;2.17;;;14.70;89.70;;;;;;5114359;28;20043;-61
2022/01/14 10:52:15;;;;;;;4.88;2.28;;;14.80;89.40;;;;;;5113994;28;20052;-61
2022/01/14 10:54:47;;;;;;;7.05;2.03;;;14.80;89.80;;;;;;5079434;28;20071;-61
2022/01/14 10:57:18;;;;;;;7.70;2.47;;;14.80;89.90;;;;;;5095424;28;20051;-62
2022/01/14 10:59:47;;;;;;;4.65;2.20;;;15.00;90.10;;;;;;5113966;28;20043;-61
2022/01/14 11:02:39;;;;;;;4.03;1.90;;;15.00;90.20;;;;;;5113843;28;20039;-62
2022/01/14 11:05:06;;;;;;;4.05;1.77;;;15.20;89.30;;;;;;5096002;28;20075;-62
2022/01/14 11:07:34;;;;;;;5.15;2.33;;;15.20;87.30;;;;;;5113583;28;20044;-61
2022/01/14 11:10:16;;;;;;;7.15;3.08;;;15.30;88.10;;;;;;5079038;28;20044;-61
2022/01/14 11:12:44;;;;;;;6.13;3.08;;;15.30;90.20;;;;;;5113868;28;20513;-61
2022/01/14 11:15:13;;;;;;;11.23;2.92;;;15.10;90.90;;;;;;5113647;28;20534;-61
2022/01/14 11:17:43;;;;;;;13.48;3.85;;;15.20;91.80;;;;;;5113777;28;20043;-61
2022/01/14 11:20:24;;;;;;;6.20;2.75;;;15.30;91.40;;;;;;5113684;28;20051;-62
2022/01/14 11:25:58;;;;;;;8.07;3.08;;;15.20;91.80;;;;;;5031206;28;20046;-61
2022/01/14 11:28:34;;;;;;;5.07;2.67;;;15.40;91.90;;;;;;5031352;28;20447;-61
2022/01/14 11:31:27;;;;;;;9.32;3.85;;;15.40;92.20;;;;;;5078074;28;20054;-61
2022/01/14 11:33:56;;;;;;;8.20;3.88;;;15.50;92.70;;;;;;5078917;28;20576;-61
2022/01/14 11:36:44;;;;;;;7.10;3.50;;;15.50;92.70;;;;;;5113698;28;20035;-61
2022/01/14 11:39:24;;;;;;;6.75;3.67;;;15.40;93.00;;;;;;5113283;28;20044;-61
2022/01/14 11:41:57;;;;;;;8.02;4.32;;;15.40;93.10;;;;;;5106667;28;20086;-61
2022/01/14 11:47:36;;;;;;;11.82;4.35;;;15.30;93.80;;;;;;5108592;28;20031;-62
2022/01/14 11:50:06;;;;;;;12.82;4.95;;;15.10;93.80;;;;;;5090433;28;20056;-64
2022/01/14 11:52:36;;;;;;;13.65;3.83;;;15.00;94.00;;;;;;5098336;28;20062;-63
2022/01/14 11:55:14;;;;;;;9.27;4.38;;;15.10;94.70;;;;;;5110593;28;20032;-61
2022/01/14 11:57:45;;;;;;;10.02;5.28;;;15.00;94.60;;;;;;5106462;28;20204;-61
2022/01/14 12:00:25;;;;;;;8.05;3.88;;;14.90;94.80;;;;;;5104146;28;20126;-61
2022/01/14 12:02:59;;;;;;;8.98;3.67;;;14.80;95.20;;;;;;5094270;28;20039;-62
2022/01/14 12:05:31;;;;;;;17.33;3.70;;;14.70;95.30;;;;;;5106027;28;20044;-62
2022/01/14 12:08:04;;;;;;;12.43;5.22;;;14.60;95.50;;;;;;5084077;28;20044;-62
2022/01/14 12:10:34;;;;;;;16.98;6.63;;;14.50;95.70;;;;;;5092515;28;20059;-62
2022/01/14 12:13:43;;;;;;;8.95;4.80;;;14.60;96.00;;;;;;5103773;27;20498;-62
2022/01/14 12:19:02;;;;;;;11.30;4.57;;;14.70;95.80;;;;;;5092057;28;20039;-62
2022/01/14 12:24:17;;;;;;;10.82;5.40;;;14.70;95.90;;;;;;5106902;28;20085;-61
2022/01/14 12:26:57;;;;;;;13.70;4.93;;;14.80;96.60;;;;;;5092938;27;20050;-62
2022/01/14 12:29:47;;;;;;;8.73;4.13;;;14.90;96.00;;;;;;5074347;28;20040;-61
2022/01/14 12:32:18;;;;;;;9.98;4.63;;;14.80;95.70;;;;;;5077677;28;20047;-61
2022/01/14 12:34:48;;;;;;;12.20;5.28;;;14.60;95.80;;;;;;5111417;27;20055;-62
2022/01/14 12:37:27;;;;;;;11.35;5.38;;;14.60;96.10;;;;;;5112180;28;20126;-62
2022/01/14 12:39:56;;;;;;;7.68;5.15;;;14.50;96.10;;;;;;5081557;28;20101;-62
2022/01/14 12:42:24;;;;;;;11.70;3.85;;;14.50;96.10;;;;;;5103395;28;20086;-62
2022/01/14 12:44:53;;;;;;;9.25;3.53;;;14.50;96.00;;;;;;5087450;27;20051;-62
2022/01/14 12:47:31;;;;;;;8.48;3.42;;;14.50;96.00;;;;;;5087489;28;20065;-65
2022/01/14 12:50:06;;;;;;;9.35;4.30;;;14.50;96.30;;;;;;5094928;28;20051;-61
2022/01/14 12:52:46;;;;;;;7.43;2.90;;;14.40;96.50;;;;;;5090696;28;20110;-63
2022/01/14 12:55:17;;;;;;;9.38;3.25;;;14.30;96.60;;;;;;5091757;27;20048;-61
2022/01/14 12:57:45;;;;;;;10.23;3.40;;;14.20;96.50;;;;;;5097154;28;20379;-62
2022/01/14 13:00:14;;;;;;;17.85;4.65;;;14.10;96.60;;;;;;5081160;28;20051;-61
2022/01/14 13:02:42;;;;;;;9.38;4.00;;;14.00;96.70;;;;;;5097826;28;20046;-61
2022/01/14 13:05:21;;;;;;;12.13;3.70;;;14.00;97.00;;;;;;5097702;28;20063;-61
2022/01/14 13:07:49;;;;;;;10.30;4.30;;;14.00;97.10;;;;;;5115040;28;20044;-61
2022/01/14 13:10:18;;;;;;;8.40;3.58;;;13.90;97.40;;;;;;5097791;28;20051;-61
2022/01/14 13:12:46;;;;;;;8.90;3.50;;;13.80;97.50;;;;;;5115651;28;20494;-61
2022/01/14 13:15:19;;;;;;;9.40;4.53;;;13.80;97.70;;;;;;5097553;28;20134;-61
2022/01/14 13:18:00;;;;;;;5.97;3.13;;;13.70;97.90;;;;;;5097830;28;20067;-61
2022/01/14 13:20:30;;;;;;;10.38;3.83;;;13.70;98.10;;;;;;5115767;28;20393;-61
2022/01/14 13:22:58;;;;;;;12.07;3.95;;;13.70;98.10;;;;;;5115461;28;20040;-61
2022/01/14 13:25:33;;;;;;;13.82;4.65;;;13.70;98.20;;;;;;5097597;28;20061;-61
2022/01/14 13:28:04;;;;;;;6.95;3.92;;;13.60;98.40;;;;;;5097387;28;20089;-62
2022/01/14 13:30:37;;;;;;;16.00;3.90;;;13.70;98.50;;;;;;5115732;28;20449;-61
2022/01/14 13:33:15;;;;;;;8.93;4.25;;;13.70;98.50;;;;;;5097762;28;20033;-61
2022/01/14 13:35:46;;;;;;;11.40;3.65;;;13.80;98.60;;;;;;5115363;28;20039;-61
2022/01/14 13:38:19;;;;;;;10.27;3.97;;;13.80;98.50;;;;;;5097499;28;20043;-61
2022/01/14 13:40:52;;;;;;;6.82;3.10;;;13.80;98.50;;;;;;5080567;28;20105;-60
2022/01/14 13:43:30;;;;;;;11.50;3.75;;;13.80;98.40;;;;;;5097079;28;20511;-61